Aviation Digital Data Service (ADDS)

Output produced by METARs form (2128 UTC 24 May 2017)
found at http://aviationweather.gov/adds/metars/
 
KCLT 242032Z 2421/2518 15011KT P6SM -SHRA SCT012 OVC035 
     TEMPO 2421/2501 VRB25G35KT 3SM +TSRA OVC012CB 
     FM250100 18008KT P6SM VCSH SCT020 BKN035 
     FM250400 20007KT P6SM BKN045 
     FM250900 23006KT P6SM BKN025 
     PROB30 2513/2518 4SM -SHRA OVC015